Bertopolis, Brazil
Current Conditions -  °F | °C
As of 7:00 PM on Friday 19 Dec 2014 (Local Time) from SBPS Reporting Station
Rain Showers Rain Showers  
Wind Chill: 75°   Ceiling: 800
Heat Index: 75°   Visibility: 4mi
Dew Point: 72°   Wind: 8mph
Humidity: 89%   Direction: 30°NNE
Pressure: 29.88"   Gusts: NA
Location:  17.06°S, 40.57°W
Report Text: SBPS 192100Z 03007KT 6000 VCSH BKN008 BKN020 BKN050 24/22 Q1012
Loading
Personal Weather Stations






























Interactive Weather Map New forecast layout! Learn more

10-Day Weather Forecast

Advertisements
Track Severe Weather on mobile